createdAt,value
2022-11-24T00:02:06.086Z,62402.38
2022-11-24T00:04:33.258Z,62402.38
2022-11-24T00:07:01.464Z,62402.38
2022-11-24T00:09:28.187Z,62402.38
2022-11-24T00:11:54.866Z,62402.38
2022-11-24T00:14:21.616Z,62402.38
2022-11-24T00:16:48.539Z,62402.38
2022-11-24T00:19:19.531Z,62402.38
2022-11-24T00:21:46.794Z,62402.38
2022-11-24T00:24:14.864Z,96493.72
2022-11-24T00:26:42.287Z,96823.22
2022-11-24T00:29:11.022Z,96832.38
2022-11-24T00:31:39.429Z,96847.41
2022-11-24T00:34:08.311Z,96831.88
2022-11-24T00:36:35.839Z,96845.31
2022-11-24T00:39:05.107Z,62402.38
2022-11-24T00:41:33.576Z,62402.38
2022-11-24T00:44:00.500Z,62402.38
2022-11-24T00:46:28.528Z,62402.38
2022-11-24T00:48:55.960Z,62402.38
2022-11-24T00:51:25.043Z,62402.38
2022-11-24T00:53:53.120Z,62402.38
2022-11-24T00:56:20.542Z,62402.38
2022-11-24T00:58:48.698Z,62402.38
2022-11-24T01:01:18.232Z,62402.38
2022-11-24T01:03:46.987Z,62402.38
2022-11-24T01:06:15.985Z,62402.38
2022-11-24T01:08:43.106Z,62402.38
2022-11-24T01:11:12.835Z,62402.38
2022-11-24T01:13:40.071Z,62402.38
2022-11-24T01:16:14.645Z,62402.38
2022-11-24T01:18:41.379Z,62402.38
2022-11-24T01:21:10.310Z,62402.38
2022-11-24T01:23:37.249Z,62402.38
2022-11-24T01:26:05.686Z,62402.38
2022-11-24T01:28:32.380Z,62402.38
2022-11-24T01:30:59.371Z,62402.38
2022-11-24T01:33:28.104Z,62402.38
2022-11-24T01:35:54.885Z,62402.38
2022-11-24T01:38:21.841Z,62402.38
2022-11-24T01:40:49.123Z,62402.38
2022-11-24T01:43:18.262Z,62402.38
2022-11-24T01:45:45.606Z,62402.38
2022-11-24T01:48:21.127Z,62402.38
2022-11-24T01:50:56.051Z,62402.38
2022-11-24T01:53:24.207Z,62402.38
2022-11-24T01:55:53.153Z,62402.38
2022-11-24T01:58:23.911Z,62402.38
2022-11-24T02:00:51.028Z,62402.38
2022-11-24T02:03:20.818Z,62402.38
2022-11-24T02:05:51.474Z,62402.38
2022-11-24T02:08:26.001Z,62402.38
2022-11-24T02:10:54.680Z,62402.38
2022-11-24T02:13:22.453Z,62402.38
2022-11-24T02:15:49.177Z,62402.38
2022-11-24T02:18:15.973Z,62402.38
2022-11-24T02:20:42.634Z,62402.38
2022-11-24T02:23:17.923Z,62402.38
2022-11-24T02:25:56.416Z,62402.38
2022-11-24T02:28:28.847Z,62402.38
2022-11-24T02:30:55.636Z,62402.38
2022-11-24T02:33:22.955Z,62402.38
2022-11-24T02:35:49.647Z,62402.38
2022-11-24T02:38:16.236Z,62402.38
2022-11-24T02:40:46.657Z,62402.38
2022-11-24T02:43:24.289Z,62402.38
2022-11-24T02:45:51.212Z,62402.38
2022-11-24T02:48:17.886Z,62402.38
2022-11-24T02:50:44.572Z,96940.72
2022-11-24T02:53:11.128Z,96937.56
2022-11-24T02:55:37.816Z,96940.53
2022-11-24T02:58:04.461Z,96931.13
2022-11-24T03:00:32.552Z,96937.06
2022-11-24T03:02:59.304Z,96950.00
2022-11-24T03:05:26.263Z,96938.25
2022-11-24T03:07:53.019Z,96943.38
2022-11-24T03:10:19.814Z,96946.94
2022-11-24T03:12:46.459Z,96943.78
2022-11-24T03:15:13.237Z,96946.94
2022-11-24T03:17:41.242Z,96953.38
2022-11-24T03:20:09.559Z,96954.72
2022-11-24T03:22:37.240Z,96945.63
2022-11-24T03:25:04.668Z,96947.22
2022-11-24T03:27:31.553Z,96950.22
2022-11-24T03:29:58.276Z,96950.25
2022-11-24T03:32:25.483Z,96954.19
2022-11-24T03:34:53.533Z,96941.00
2022-11-24T03:37:20.911Z,96945.84
2022-11-24T03:39:47.548Z,96945.63
2022-11-24T03:42:14.740Z,96949.44
2022-11-24T03:44:41.384Z,96956.16
2022-11-24T03:47:08.107Z,96945.06
2022-11-24T03:49:34.865Z,96937.63
2022-11-24T03:52:07.855Z,96942.50
2022-11-24T03:54:35.243Z,96940.56
2022-11-24T03:57:02.170Z,96939.22
2022-11-24T03:59:28.897Z,96943.28
2022-11-24T04:01:55.615Z,96948.06
2022-11-24T04:04:22.277Z,96952.34
2022-11-24T04:06:48.874Z,96966.75
2022-11-24T04:09:17.156Z,96971.00
2022-11-24T04:12:02.393Z,96961.09
2022-11-24T04:14:29.060Z,96969.16
2022-11-24T04:16:55.685Z,96967.50
2022-11-24T04:19:22.366Z,96974.19
2022-11-24T04:21:49.061Z,96974.41
2022-11-24T04:24:17.062Z,96969.53
2022-11-24T04:26:43.699Z,96979.53
2022-11-24T04:29:10.426Z,96987.03
2022-11-24T04:31:37.296Z,96990.00
2022-11-24T04:34:04.325Z,96994.06
2022-11-24T04:36:31.076Z,96990.25
2022-11-24T04:39:23.680Z,96989.97
2022-11-24T04:41:47.165Z,96981.63
2022-11-24T04:44:13.964Z,96985.16
2022-11-24T04:46:40.632Z,96985.94
2022-11-24T04:49:11.531Z,96990.97
2022-11-24T04:51:38.739Z,96999.28
2022-11-24T04:54:05.578Z,97006.84
2022-11-24T04:56:32.350Z,97013.78
2022-11-24T04:59:05.156Z,97013.78
2022-11-24T05:01:34.611Z,97022.09
2022-11-24T05:04:01.274Z,97025.88
2022-11-24T05:06:28.099Z,97029.34
2022-11-24T05:08:54.766Z,97028.78
2022-11-24T05:11:21.521Z,97036.59
2022-11-24T05:13:48.162Z,97035.78
2022-11-24T05:16:16.302Z,97041.72
2022-11-24T05:18:42.994Z,97037.38
2022-11-24T05:21:09.663Z,97042.22
2022-11-24T05:23:36.316Z,97049.97
2022-11-24T05:26:03.812Z,97051.34
2022-11-24T05:28:30.836Z,97056.47
2022-11-24T05:30:59.460Z,97057.28
2022-11-24T05:33:30.030Z,97058.94
2022-11-24T05:36:01.691Z,97057.06
2022-11-24T05:38:30.158Z,5196.03
2022-11-24T05:41:00.557Z,80784.50
2022-11-24T05:43:27.284Z,97075.81
2022-11-24T05:45:54.007Z,97078.50
2022-11-24T05:48:20.746Z,97087.66
2022-11-24T05:50:55.312Z,97087.41
2022-11-24T05:53:22.366Z,97080.41
2022-11-24T05:55:49.304Z,97084.44
2022-11-24T05:58:16.014Z,97079.06
2022-11-24T06:00:42.859Z,97081.47
2022-11-24T06:03:10.972Z,97083.88
2022-11-24T06:05:37.991Z,97086.47
2022-11-24T06:08:06.217Z,97077.63
2022-11-24T06:10:32.917Z,97082.47
2022-11-24T06:12:59.640Z,97077.63
2022-11-24T06:15:26.419Z,97079.81
2022-11-24T06:17:54.733Z,97090.00
2022-11-24T06:20:21.789Z,97091.34
2022-11-24T06:22:48.603Z,97098.38
2022-11-24T06:25:16.978Z,97100.25
2022-11-24T06:27:43.736Z,97106.72
2022-11-24T06:30:11.875Z,97102.69
2022-11-24T06:32:42.590Z,97108.06
2022-11-24T06:35:11.330Z,97110.72
2022-11-24T06:37:38.037Z,97112.06
2022-11-24T06:40:06.045Z,97102.66
2022-11-24T06:42:34.088Z,97109.91
2022-11-24T06:45:00.763Z,97109.38
2022-11-24T06:47:27.480Z,97108.56
2022-11-24T06:49:54.306Z,97107.78
2022-11-24T06:52:20.968Z,97109.69
2022-11-24T06:54:47.701Z,97116.41
2022-11-24T06:57:14.450Z,97110.22
2022-11-24T06:59:42.615Z,97122.06
2022-11-24T07:02:09.946Z,97117.72
2022-11-24T07:04:36.956Z,97130.63
2022-11-24T07:07:03.853Z,97133.56
2022-11-24T07:09:30.538Z,97134.09
2022-11-24T07:11:57.629Z,97136.22
2022-11-24T07:14:24.574Z,97143.75
2022-11-24T07:16:52.622Z,97141.59
2022-11-24T07:19:24.618Z,97141.06
2022-11-24T07:21:51.859Z,97141.59
2022-11-24T07:24:18.909Z,97150.22
2022-11-24T07:26:45.867Z,97146.47
2022-11-24T07:29:12.562Z,97148.59
2022-11-24T07:31:39.423Z,97148.88
2022-11-24T07:34:07.486Z,97147.00
2022-11-24T07:36:34.235Z,97155.63
2022-11-24T07:39:00.991Z,97157.47
2022-11-24T07:41:27.784Z,97157.22
2022-11-24T07:43:55.520Z,97152.91
2022-11-24T07:46:22.429Z,97167.13
2022-11-24T07:48:49.181Z,97161.22
2022-11-24T07:51:17.658Z,97161.47
2022-11-24T07:53:47.236Z,97169.53
2022-11-24T07:56:14.617Z,97163.59
2022-11-24T07:58:41.795Z,97177.03
2022-11-24T08:01:13.407Z,97173.00
2022-11-24T08:03:40.526Z,97180.47
2022-11-24T08:06:24.106Z,97179.66
2022-11-24T08:08:55.089Z,97189.31
2022-11-24T08:11:22.355Z,97185.81
2022-11-24T08:13:49.281Z,97189.00
2022-11-24T08:16:18.273Z,97188.72
2022-11-24T08:18:50.325Z,97188.16
2022-11-24T08:21:17.258Z,97194.03
2022-11-24T08:23:44.055Z,97195.38
2022-11-24T08:26:15.845Z,97190.59
2022-11-24T08:28:43.143Z,97206.16
2022-11-24T08:31:12.078Z,97198.66
2022-11-24T08:33:39.052Z,97203.47
2022-11-24T08:36:07.971Z,97199.69
2022-11-24T08:38:34.736Z,97206.97
2022-11-24T08:41:02.265Z,97208.25
2022-11-24T08:43:30.968Z,97211.66
2022-11-24T08:46:00.042Z,97218.41
2022-11-24T08:48:27.069Z,97213.28
2022-11-24T08:50:53.890Z,97212.78
2022-11-24T08:53:21.100Z,97219.47
2022-11-24T08:55:47.802Z,97228.53
2022-11-24T08:58:14.696Z,97226.66
2022-11-24T09:00:43.413Z,97244.69
2022-11-24T09:03:11.724Z,97236.38
2022-11-24T09:05:53.939Z,97230.13
2022-11-24T09:08:20.752Z,97245.34
2022-11-24T09:10:47.714Z,97248.28
2022-11-24T09:13:14.621Z,97256.59
2022-11-24T09:15:42.878Z,97247.25
2022-11-24T09:18:09.976Z,97254.09
2022-11-24T09:20:36.652Z,97255.78
2022-11-24T09:23:03.444Z,97259.25
2022-11-24T09:25:30.170Z,97247.75
2022-11-24T09:27:57.455Z,97261.72
2022-11-24T09:30:24.299Z,97256.31
2022-11-24T09:32:52.639Z,97257.38
2022-11-24T09:35:19.373Z,97260.06
2022-11-24T09:37:48.268Z,97275.94
2022-11-24T09:40:16.703Z,97267.56
2022-11-24T09:42:54.845Z,97269.22
2022-11-24T09:46:03.369Z,97267.88
2022-11-24T09:48:27.558Z,97287.91
2022-11-24T09:50:58.074Z,97295.38
2022-11-24T09:53:31.406Z,97287.88
2022-11-24T09:56:02.413Z,97297.28
2022-11-24T09:58:40.481Z,97300.06
2022-11-24T10:01:15.767Z,97310.97
2022-11-24T10:03:46.334Z,97322.84
2022-11-24T10:06:25.342Z,97315.34
2022-11-24T10:09:12.904Z,97317.81
2022-11-24T10:11:45.901Z,97308.97
2022-11-24T10:14:48.324Z,97321.63
2022-11-24T10:17:29.105Z,97337.22
2022-11-24T10:20:05.010Z,97329.44
2022-11-24T10:22:47.168Z,97333.72
2022-11-24T10:25:21.336Z,97337.97
2022-11-24T10:28:02.449Z,97340.16
2022-11-24T10:30:30.200Z,97343.94
2022-11-24T10:33:01.424Z,97341.00
2022-11-24T10:35:36.347Z,97349.31
2022-11-24T10:38:14.109Z,97351.97
2022-11-24T10:41:00.257Z,97353.03
2022-11-24T10:43:28.444Z,97349.03
2022-11-24T10:45:55.478Z,97352.16
2022-11-24T10:48:26.538Z,97352.16
2022-11-24T10:51:24.595Z,97354.97
2022-11-24T10:54:02.561Z,97349.06
2022-11-24T10:56:39.000Z,97344.00
2022-11-24T10:59:22.010Z,97345.13
2022-11-24T11:01:48.909Z,97354.47
2022-11-24T11:04:20.001Z,97351.44
2022-11-24T11:06:48.162Z,97359.56
2022-11-24T11:09:20.810Z,97361.06
2022-11-24T11:11:48.861Z,97363.19
2022-11-24T11:14:30.394Z,97370.22
2022-11-24T11:16:58.055Z,62402.38
2022-11-24T11:19:50.908Z,97364.50
2022-11-24T11:22:27.053Z,97360.13
2022-11-24T11:25:07.945Z,97368.88
2022-11-24T11:27:34.680Z,97372.81
2022-11-24T11:36:10.816Z,97383.09
2022-11-24T11:38:40.512Z,97384.78
2022-11-24T11:41:14.030Z,62402.38
2022-11-24T11:43:41.600Z,62402.38
2022-11-24T11:46:12.397Z,62402.38
2022-11-24T11:48:44.062Z,62402.38
2022-11-24T11:51:41.877Z,62402.38
2022-11-24T11:54:18.494Z,62402.38
2022-11-24T11:56:49.636Z,62402.38
2022-11-24T11:59:42.755Z,62402.38
2022-11-24T12:02:53.821Z,62402.38
2022-11-24T12:05:30.027Z,62402.38
2022-11-24T12:08:20.789Z,62402.38
2022-11-24T12:10:57.414Z,62402.38
2022-11-24T12:13:43.371Z,62402.38
2022-11-24T12:16:21.008Z,62402.38
2022-11-24T12:18:58.305Z,97384.78
2022-11-24T12:21:34.165Z,97411.28
2022-11-24T12:24:11.821Z,97420.22
2022-11-24T12:26:46.375Z,97420.22
2022-11-24T12:29:39.469Z,97418.88
2022-11-24T12:32:19.708Z,97417.75
2022-11-24T12:34:55.496Z,97415.78
2022-11-24T12:37:43.578Z,62402.38
2022-11-24T12:40:16.143Z,97415.78
2022-11-24T12:42:55.494Z,97428.91
2022-11-24T12:45:31.879Z,97425.41
2022-11-24T12:48:10.154Z,97431.09
2022-11-24T12:50:38.629Z,97424.13
2022-11-24T12:53:12.495Z,97434.88
2022-11-24T12:55:40.478Z,97432.97
2022-11-24T12:58:18.076Z,97438.34
2022-11-24T13:01:03.024Z,97430.72
2022-11-24T13:03:41.138Z,97427.97
2022-11-24T13:06:13.201Z,97427.13
2022-11-24T13:08:40.689Z,97441.69
2022-11-24T13:11:36.927Z,97443.22
2022-11-24T13:14:08.211Z,97436.72
2022-11-24T13:17:06.090Z,97434.53
2022-11-24T13:19:36.630Z,97435.66
2022-11-24T13:22:14.718Z,97449.72
2022-11-24T13:24:45.328Z,97440.31
2022-11-24T13:27:41.589Z,97445.00
2022-11-24T13:30:50.420Z,97447.13
2022-11-24T13:33:38.428Z,97459.00
2022-11-24T13:36:30.596Z,97451.19
2022-11-24T13:38:58.209Z,97461.19
2022-11-24T13:42:08.989Z,97464.94
2022-11-24T13:44:52.775Z,97466.03
2022-11-24T13:47:47.089Z,97465.78
2022-11-24T13:51:03.813Z,97475.47
2022-11-24T13:53:34.734Z,97472.53
2022-11-24T13:56:09.063Z,97473.34
2022-11-24T13:58:39.520Z,97471.66
2022-11-24T14:01:17.685Z,97470.34
2022-11-24T14:04:29.952Z,97467.66
2022-11-24T14:06:56.534Z,97465.78
2022-11-24T14:09:29.285Z,97461.25
2022-11-24T14:12:01.138Z,97455.34
2022-11-24T14:14:29.748Z,97461.84
2022-11-24T14:17:17.073Z,97463.97
2022-11-24T14:19:46.409Z,97466.72
2022-11-24T14:22:19.035Z,97465.13
2022-11-24T14:24:51.508Z,97473.81
2022-11-24T14:27:24.913Z,97469.25
2022-11-24T14:29:54.463Z,97478.41
2022-11-24T14:32:22.116Z,97476.03
2022-11-24T14:34:49.396Z,97486.56
2022-11-24T14:37:18.159Z,97478.25
2022-11-24T14:39:44.972Z,97477.97
2022-11-24T14:42:18.392Z,97477.13
2022-11-24T14:44:52.749Z,97483.34
2022-11-24T14:47:30.464Z,97475.00
2022-11-24T14:50:08.193Z,97468.56
2022-11-24T14:52:43.087Z,97473.44
2022-11-24T14:55:24.499Z,97475.34
2022-11-24T14:57:52.764Z,97478.63
2022-11-24T15:00:25.791Z,97472.75
2022-11-24T15:02:55.361Z,97480.81
2022-11-24T15:05:25.417Z,97474.94
2022-11-24T15:08:02.604Z,97474.66
2022-11-24T15:10:35.379Z,97479.00
2022-11-24T15:13:05.698Z,97482.78
2022-11-24T15:15:35.474Z,97487.38
2022-11-24T15:18:04.233Z,97488.97
2022-11-24T15:20:35.190Z,97484.66
2022-11-24T15:23:22.970Z,97482.78
2022-11-24T15:25:51.132Z,97487.88
2022-11-24T15:28:18.043Z,97491.88
2022-11-24T15:30:45.031Z,97492.69
2022-11-24T15:33:14.609Z,97492.94
2022-11-24T15:35:41.903Z,97495.63
2022-11-24T15:38:09.128Z,97505.53
2022-11-24T15:40:38.292Z,97511.13
2022-11-24T15:43:27.393Z,97515.13
2022-11-24T15:45:54.402Z,97520.16
2022-11-24T15:48:21.357Z,97523.91
2022-11-24T15:50:49.893Z,97523.88
2022-11-24T15:53:22.259Z,97515.75
2022-11-24T15:55:52.064Z,97519.97
2022-11-24T15:58:19.389Z,97517.78
2022-11-24T16:00:47.007Z,97524.69
2022-11-24T16:03:45.030Z,97530.00
2022-11-24T16:06:00.741Z,97537.44
2022-11-24T16:08:28.867Z,97537.41
2022-11-24T16:10:57.066Z,97542.97
2022-11-24T16:13:23.756Z,97550.13
2022-11-24T16:15:50.657Z,97550.56
2022-11-24T16:18:17.754Z,97549.97
2022-11-24T16:20:44.720Z,97552.78
2022-11-24T16:23:12.261Z,97546.59
2022-11-24T16:25:38.924Z,97543.28
2022-11-24T16:28:08.621Z,97538.66
2022-11-24T16:30:35.427Z,97537.78
2022-11-24T16:33:04.006Z,97542.72
2022-11-24T16:35:30.816Z,97541.25
2022-11-24T16:37:57.651Z,97547.13
2022-11-24T16:40:24.630Z,97559.16
2022-11-24T16:42:52.398Z,97563.09
2022-11-24T16:45:20.676Z,97558.75
2022-11-24T16:47:47.994Z,97562.41
2022-11-24T16:50:18.009Z,97561.47
2022-11-24T16:52:44.889Z,97562.69
2022-11-24T16:55:14.233Z,97558.06
2022-11-24T16:57:41.444Z,97557.22
2022-11-24T17:00:11.317Z,97562.16
2022-11-24T17:02:39.650Z,97553.00
2022-11-24T17:05:07.899Z,97550.75
2022-11-24T17:07:35.813Z,97551.00
2022-11-24T17:10:02.641Z,97559.78
2022-11-24T17:12:29.468Z,97564.38
2022-11-24T17:15:24.422Z,97566.19
2022-11-24T17:18:08.477Z,97563.84
2022-11-24T17:20:31.647Z,97567.41
2022-11-24T17:22:58.329Z,97571.34
2022-11-24T17:25:25.004Z,97569.72
2022-11-24T17:27:51.781Z,97566.81
2022-11-24T17:30:18.771Z,97566.94
2022-11-24T17:32:46.888Z,97570.06
2022-11-24T17:35:13.726Z,97571.75
2022-11-24T17:37:40.671Z,97579.53
2022-11-24T17:40:27.358Z,97583.16
2022-11-24T17:42:58.328Z,97583.88
2022-11-24T17:45:25.225Z,97584.59
2022-11-24T17:47:53.540Z,97588.81
2022-11-24T17:50:25.425Z,97580.13
2022-11-24T17:52:53.184Z,97589.81
2022-11-24T17:55:19.987Z,97589.84
2022-11-24T17:57:46.839Z,97592.03
2022-11-24T18:00:14.757Z,97592.44
2022-11-24T18:02:41.716Z,97593.59
2022-11-24T18:05:10.240Z,97589.81
2022-11-24T18:07:37.121Z,97600.16
2022-11-24T18:10:04.662Z,97596.31
2022-11-24T18:12:32.412Z,97602.91
2022-11-24T18:14:59.294Z,97591.66
2022-11-24T18:17:26.204Z,97590.34
2022-11-24T18:19:53.023Z,97589.22
2022-11-24T18:22:42.899Z,97587.97
2022-11-24T18:25:08.716Z,97597.81
2022-11-24T18:27:36.095Z,97598.38
2022-11-24T18:30:03.999Z,97603.25
2022-11-24T18:32:32.092Z,97602.66
2022-11-24T18:34:58.805Z,97601.16
2022-11-24T18:37:29.046Z,97604.19
2022-11-24T18:39:56.231Z,97600.94
2022-11-24T18:42:25.626Z,97598.84
2022-11-24T18:44:54.311Z,97595.56
2022-11-24T18:47:21.119Z,97599.03
2022-11-24T18:49:47.832Z,97590.94
2022-11-24T18:52:14.544Z,97593.59
2022-11-24T18:54:42.596Z,97590.94
2022-11-24T18:57:09.421Z,97600.91
2022-11-24T18:59:36.849Z,97600.69
2022-11-24T19:02:04.179Z,97600.38
2022-11-24T19:04:31.128Z,97601.34
2022-11-24T19:06:57.841Z,97601.19
2022-11-24T19:09:25.623Z,97604.59
2022-11-24T19:11:53.743Z,97605.16
2022-11-24T19:14:20.551Z,97597.63
2022-11-24T19:16:48.226Z,97585.69
2022-11-24T19:19:16.914Z,97583.44
2022-11-24T19:21:44.063Z,97578.09
2022-11-24T19:24:11.515Z,97578.56
2022-11-24T19:26:39.142Z,97584.69
2022-11-24T19:29:07.794Z,97576.22
2022-11-24T19:31:35.074Z,97578.09
2022-11-24T19:34:03.160Z,97582.94
2022-11-24T19:36:30.194Z,97578.19
2022-11-24T19:38:57.902Z,97582.28
2022-11-24T19:41:26.874Z,97578.47
2022-11-24T19:43:54.613Z,97581.47
2022-11-24T19:46:26.327Z,97582.75
2022-11-24T19:48:59.730Z,97577.75
2022-11-24T19:51:30.547Z,97577.31
2022-11-24T19:53:57.612Z,97581.59
2022-11-24T19:56:25.527Z,97578.00
2022-11-24T19:58:53.796Z,97578.44
2022-11-24T20:01:24.753Z,97580.59
2022-11-24T20:03:56.282Z,97585.19
2022-11-24T20:06:23.099Z,97582.28
2022-11-24T20:08:49.776Z,97582.75
2022-11-24T20:11:19.525Z,97581.03
2022-11-24T20:13:50.406Z,97586.75
2022-11-24T20:16:20.230Z,97583.28
2022-11-24T20:18:48.447Z,97577.22
2022-11-24T20:21:16.761Z,97587.28
2022-11-24T20:23:45.525Z,97579.50
2022-11-24T20:26:14.205Z,97589.81
2022-11-24T20:28:41.513Z,97584.63
2022-11-24T20:31:10.961Z,97587.28
2022-11-24T20:33:38.438Z,97587.28
2022-11-24T20:36:08.613Z,97594.00
2022-11-24T20:38:35.887Z,97593.31
2022-11-24T20:41:08.812Z,97597.09
2022-11-24T20:43:36.827Z,97595.75
2022-11-24T20:46:04.545Z,97601.78
2022-11-24T20:48:31.613Z,97595.84
2022-11-24T20:51:03.155Z,97608.59
2022-11-24T20:53:31.421Z,97601.19
2022-11-24T20:56:05.914Z,97589.53
2022-11-24T20:58:33.685Z,97593.69
2022-11-24T21:01:04.222Z,97598.25
2022-11-24T21:03:31.016Z,97598.44
2022-11-24T21:05:57.852Z,97589.16
2022-11-24T21:08:24.570Z,97588.53
2022-11-24T21:10:58.234Z,97589.75
2022-11-24T21:13:25.594Z,97585.00
2022-11-24T21:15:53.075Z,97589.22
2022-11-24T21:18:21.363Z,97594.59
2022-11-24T21:20:49.065Z,97591.16
2022-11-24T21:23:17.209Z,97602.34
2022-11-24T21:25:46.078Z,97604.47
2022-11-24T21:28:14.310Z,97607.00
2022-11-24T21:30:41.157Z,97601.56
2022-11-24T21:33:08.176Z,97601.69
2022-11-24T21:35:36.534Z,97603.09
2022-11-24T21:38:03.946Z,97602.72
2022-11-24T21:40:30.758Z,97603.84
2022-11-24T21:42:58.437Z,97594.28
2022-11-24T21:45:29.160Z,97596.41
2022-11-24T21:47:56.742Z,97602.31
2022-11-24T21:50:23.738Z,97601.69
2022-11-24T21:52:50.898Z,97602.41
2022-11-24T21:55:18.251Z,97605.41
2022-11-24T21:57:45.373Z,97598.00
2022-11-24T22:00:13.355Z,97602.47
2022-11-24T22:02:41.584Z,97606.78
2022-11-24T22:05:09.176Z,97591.66
2022-11-24T22:07:36.047Z,97590.91
2022-11-24T22:10:02.784Z,97596.03
2022-11-24T22:12:29.812Z,97593.03
2022-11-24T22:14:57.264Z,97594.53
2022-11-24T22:17:23.916Z,97592.31
2022-11-24T22:19:52.067Z,97596.66
2022-11-24T22:22:18.835Z,97596.41
2022-11-24T22:24:45.615Z,97591.09
2022-11-24T22:27:12.362Z,97593.31
2022-11-24T22:29:39.390Z,97595.53
2022-11-24T22:32:06.186Z,97588.66
2022-11-24T22:34:34.819Z,97586.63
2022-11-24T22:37:03.599Z,97582.88
2022-11-24T22:39:30.279Z,97583.72
2022-11-24T22:41:57.108Z,97586.03
2022-11-24T22:44:26.301Z,97580.72
2022-11-24T22:46:53.222Z,97585.66
2022-11-24T22:49:20.431Z,97581.63
2022-11-24T22:51:47.305Z,97581.06
2022-11-24T22:54:15.313Z,97574.75
2022-11-24T22:56:42.823Z,97578.84
2022-11-24T22:59:09.530Z,97577.47
2022-11-24T23:01:36.516Z,97576.19
2022-11-24T23:04:04.090Z,97569.06
2022-11-24T23:06:32.672Z,97577.56
2022-11-24T23:09:00.837Z,97580.75
2022-11-24T23:11:36.403Z,97584.13
2022-11-24T23:14:05.410Z,97585.38
2022-11-24T23:16:34.202Z,97588.50
2022-11-24T23:19:01.042Z,97579.53
2022-11-24T23:21:30.035Z,97579.59
2022-11-24T23:23:58.675Z,97588.03
2022-11-24T23:26:28.886Z,97584.06
2022-11-24T23:28:55.718Z,97574.09
2022-11-24T23:31:30.279Z,97586.22
2022-11-24T23:33:58.414Z,97587.69
2022-11-24T23:36:25.934Z,97584.84
2022-11-24T23:38:52.595Z,97574.09
2022-11-24T23:41:20.889Z,97577.34
2022-11-24T23:43:49.222Z,97582.25
2022-11-24T23:46:17.349Z,97571.59
2022-11-24T23:48:44.422Z,97573.19
2022-11-24T23:51:14.057Z,97571.06
2022-11-24T23:53:41.376Z,97573.16
2022-11-24T23:56:08.564Z,97573.78
2022-11-24T23:58:35.472Z,97577.09
